Creek Data

    Home     View Charts     View Raw Data     Messages

ID Distance Battery Voltage Battery Current Internal Temp Internal Humidity External Temp Solar Input rssi snr Time Stamp Record
68447 14.8 3.65 -5 53 53 55 0 -81 8 03/09/2026 11:00 PM 51314
68446 14.8 3.65 -5 52 54 54 0 -77 8 03/09/2026 10:45 PM 51313
68445 14.8 3.65 -5 53 54 53 0 -77 8 03/09/2026 10:30 PM 51312
68444 14.8 3.74 -5 54 54 55 0 -77 8 03/09/2026 10:15 PM 51311
68443 14.8 3.74 -5 55 54 56 0 -78 8 03/09/2026 10:00 PM 51310
68442 14.8 3.74 -5 55 55 59 0 -77 8 03/09/2026 09:45 PM 51309
68441 14.8 3.65 -5 55 56 56 0.1 -76 8 03/09/2026 09:30 PM 51308
68440 14.8 3.66 -5 57 55 56 0.1 -77 8 03/09/2026 09:15 PM 51307
68439 14.8 3.66 -5 58 56 58 0 -77 9 03/09/2026 09:00 PM 51306
68438 14.8 3.66 -5 60 56 59 0 -78 8 03/09/2026 08:45 PM 51305
68437 14.8 3.66 -5 61 57 61 0 -77 7 03/09/2026 08:30 PM 51304
68436 14.8 3.75 -5 62 57 62 0 -79 8 03/09/2026 08:15 PM 51303
68435 14.8 3.75 -5 64 58 64 0 -80 9 03/09/2026 08:00 PM 51302
68434 14.8 3.67 -5 65 59 65 0.1 -77 8 03/09/2026 07:45 PM 51301
68433 14.8 3.67 -5 66 61 66 0 -77 8 03/09/2026 07:30 PM 51300
68432 14.8 3.67 -5 68 63 65 1.7 -76 8 03/09/2026 07:15 PM 51299
68431 14.9 3.76 0 72 62 68 4.6 -78 7 03/09/2026 07:00 PM 51298
68430 14.9 3.81 10 77 60 72 4.5 -77 8 03/09/2026 06:45 PM 51297
68429 14.9 3.94 17 81 58 75 4.5 -78 6 03/09/2026 06:30 PM 51296
68428 14.9 3.81 6 87 55 76 5.1 -77 8 03/09/2026 06:00 PM 51294
68427 15.0 3.95 6 89 54 79 5.1 -77 8 03/09/2026 05:45 PM 51293
68426 15.0 3.74 6 94 49 80 5.1 -78 7 03/09/2026 05:15 PM 51291
68425 15.0 3.74 6 94 49 78 5.1 -78 7 03/09/2026 05:00 PM 51290
68424 14.9 3.73 0 92 49 76 5.1 -77 8 03/09/2026 04:45 PM 51289
68423 14.9 3.73 6 91 48 76 5.1 -77 8 03/09/2026 04:30 PM 51288